Terminal Aerodrome Forecast
Issued by NWS

Home | Current Version | Previous Version | Text Only | Print | Product List | Glossary On
Versions: 1 2 3 4 5 6 7 8 9 10 11 12 13 14 15 16 17 18 19
389
FTUS41 KBGM 211137
TAFELM
TAF
KELM 211137Z 2112/2212 VRB04KT P6SM FEW250 WS020/23040KT
     FM211600 21012G20KT P6SM FEW250
     FM212300 21006KT P6SM SCT250 WS020/22038KT
     FM220300 21005KT P6SM BKN100
     FM220700 23005KT 5SM -SHRA OVC030
     FM221000 28008KT P6SM OVC025=

USA.gov is the U.S. government's official web portal to all federal, state and local government web resources and services.